createdAt,value
2023-06-04T00:03:53.257Z,100749.04
2023-06-04T00:13:57.011Z,100749.73
2023-06-04T00:24:01.594Z,100752.86
2023-06-04T00:34:07.929Z,100743.91
2023-06-04T00:44:12.923Z,100741.13
2023-06-04T00:54:19.907Z,100740.54
2023-06-04T01:04:51.352Z,100734.77
2023-06-04T01:14:55.142Z,100729.91
2023-06-04T01:25:06.759Z,100734.94
2023-06-04T01:35:13.665Z,100723.48
2023-06-04T01:45:17.469Z,100720.64
2023-06-04T01:55:23.724Z,100717.14
2023-06-04T02:05:29.244Z,100714.19
2023-06-04T02:15:35.288Z,100710.16
2023-06-04T02:25:41.091Z,100708.95
2023-06-04T02:35:47.046Z,100708.25
2023-06-04T02:45:52.642Z,100707.23
2023-06-04T02:55:56.870Z,100711.60
2023-06-04T03:06:01.130Z,100710.17
2023-06-04T03:16:11.008Z,100709.44
2023-06-04T03:26:15.233Z,100711.14
2023-06-04T03:36:21.927Z,100712.55
2023-06-04T03:46:30.132Z,100708.95
2023-06-04T03:56:36.960Z,100701.08
2023-06-04T04:06:41.427Z,100696.08
2023-06-04T04:16:48.448Z,100687.74
2023-06-04T04:26:56.054Z,100682.04
2023-06-04T04:37:00.680Z,100675.33
2023-06-04T04:47:04.938Z,100669.36
2023-06-04T04:57:14.167Z,100669.83
2023-06-04T05:07:24.754Z,100670.60
2023-06-04T05:17:31.615Z,100674.13
2023-06-04T05:27:41.316Z,100671.73
2023-06-04T05:37:55.102Z,100668.43
2023-06-04T05:48:04.124Z,100663.61
2023-06-04T05:58:08.040Z,100659.32
2023-06-04T06:08:13.591Z,100656.16
2023-06-04T06:18:17.437Z,100658.45
2023-06-04T06:28:21.333Z,100664.20
2023-06-04T06:38:28.763Z,100671.09
2023-06-04T06:48:32.458Z,100673.92
2023-06-04T06:58:36.538Z,100673.14
2023-06-04T07:08:41.884Z,100669.35
2023-06-04T07:18:49.032Z,100667.21
2023-06-04T07:28:55.566Z,100665.05
2023-06-04T07:39:01.421Z,100654.98
2023-06-04T07:49:07.041Z,100650.75
2023-06-04T07:59:10.724Z,100660.73
2023-06-04T08:09:14.861Z,100664.27
2023-06-04T08:19:18.552Z,100652.00
2023-06-04T08:29:22.460Z,100652.31
2023-06-04T08:39:26.269Z,100640.88
2023-06-04T08:49:37.895Z,100640.48
2023-06-04T08:59:43.710Z,100638.78
2023-06-04T09:09:57.640Z,100631.30
2023-06-04T09:20:24.688Z,100633.73
2023-06-04T09:30:28.418Z,100640.79
2023-06-04T09:40:38.900Z,100635.34
2023-06-04T09:50:46.697Z,100637.23
2023-06-04T10:00:56.778Z,100635.96
2023-06-04T10:11:04.895Z,100625.52
2023-06-04T10:21:10.527Z,100622.88
2023-06-04T10:31:14.149Z,100620.54
2023-06-04T10:41:19.382Z,100622.31
2023-06-04T10:51:35.796Z,100606.11
2023-06-04T11:01:40.430Z,100607.19
2023-06-04T11:11:45.008Z,100606.85
2023-06-04T11:21:52.378Z,100615.57
2023-06-04T11:31:56.700Z,100609.71
2023-06-04T11:42:00.933Z,100612.85
2023-06-04T11:52:07.135Z,100607.85
2023-06-04T12:02:14.119Z,100596.48
2023-06-04T12:12:26.577Z,100599.42
2023-06-04T12:22:32.761Z,100590.65
2023-06-04T12:32:37.517Z,100592.68
2023-06-04T12:42:44.502Z,100602.45
2023-06-04T12:52:48.575Z,100602.44
2023-06-04T13:02:54.400Z,100596.91
2023-06-04T13:13:00.667Z,100596.27
2023-06-04T13:23:04.446Z,100600.40
2023-06-04T13:33:08.911Z,100596.04
2023-06-04T13:43:14.605Z,100593.66
2023-06-04T13:53:19.019Z,100589.14
2023-06-04T14:03:23.189Z,100582.55
2023-06-04T14:13:29.427Z,100571.48
2023-06-04T14:23:34.336Z,100563.84
2023-06-04T14:33:38.436Z,100570.71
2023-06-04T14:43:43.581Z,100562.83
2023-06-04T14:53:48.188Z,100560.86
2023-06-04T15:03:51.931Z,100560.02
2023-06-04T15:13:55.902Z,100549.68
2023-06-04T15:23:59.797Z,100545.48
2023-06-04T15:34:03.668Z,100549.41
2023-06-04T15:44:09.330Z,100547.40
2023-06-04T15:54:13.880Z,100538.49
2023-06-04T16:04:21.589Z,100535.44
2023-06-04T16:14:25.960Z,100537.34
2023-06-04T16:24:31.510Z,100530.02
2023-06-04T16:34:37.377Z,100526.92
2023-06-04T16:44:41.307Z,100527.58
2023-06-04T16:54:47.681Z,100523.60
2023-06-04T17:04:57.202Z,100526.73
2023-06-04T17:15:00.966Z,100535.01
2023-06-04T17:25:06.529Z,100532.98
2023-06-04T17:35:11.350Z,100535.52
2023-06-04T17:45:15.661Z,100535.52
2023-06-04T17:55:21.650Z,100536.34
2023-06-04T18:05:25.401Z,100535.60
2023-06-04T18:15:29.957Z,100541.69
2023-06-04T18:25:33.645Z,100538.02
2023-06-04T18:35:37.706Z,100549.41
2023-06-04T18:45:41.359Z,100551.17
2023-06-04T18:55:45.610Z,100558.80
2023-06-04T19:05:51.543Z,100569.61
2023-06-04T19:15:55.282Z,100583.81
2023-06-04T19:26:00.328Z,100593.96
2023-06-04T19:36:07.138Z,100601.47
2023-06-04T19:46:11.334Z,100608.02
2023-06-04T19:56:15.166Z,100614.98
2023-06-04T20:06:20.081Z,100617.00
2023-06-04T20:16:24.274Z,100624.89
2023-06-04T20:26:29.614Z,100628.95
2023-06-04T20:36:36.760Z,100640.45
2023-06-04T20:46:40.700Z,100644.60
2023-06-04T20:56:44.673Z,100648.34
2023-06-04T21:06:48.559Z,100644.98
2023-06-04T21:16:53.350Z,100648.81
2023-06-04T21:26:57.154Z,100662.77
2023-06-04T21:37:01.152Z,100669.11
2023-06-04T21:47:06.373Z,100676.15
2023-06-04T21:57:10.171Z,100683.04
2023-06-04T22:07:14.208Z,100685.14
2023-06-04T22:17:19.338Z,100689.36
2023-06-04T22:27:23.288Z,100697.41
2023-06-04T22:37:27.015Z,100695.31
2023-06-04T22:47:33.585Z,100692.33
2023-06-04T22:57:38.889Z,100696.59
2023-06-04T23:07:42.645Z,100695.55
2023-06-04T23:17:46.460Z,100700.68
2023-06-04T23:27:50.209Z,100701.50
2023-06-04T23:37:54.102Z,100703.36
2023-06-04T23:48:58.468Z,100700.89
2023-06-04T23:59:02.206Z,100695.30
